createdAt,value
2022-08-03T00:00:26.578Z,99.90
2022-08-03T00:02:53.788Z,99.90
2022-08-03T00:05:20.931Z,99.90
2022-08-03T00:07:48.627Z,99.90
2022-08-03T00:10:16.904Z,99.90
2022-08-03T00:12:44.886Z,99.90
2022-08-03T00:15:16.269Z,99.90
2022-08-03T00:17:53.733Z,99.90
2022-08-03T00:20:24.431Z,99.90
2022-08-03T00:22:51.680Z,99.90
2022-08-03T00:25:19.373Z,99.90
2022-08-03T00:27:47.757Z,99.90
2022-08-03T00:30:16.835Z,99.90
2022-08-03T00:32:45.234Z,99.90
2022-08-03T00:35:32.511Z,99.90
2022-08-03T00:38:00.232Z,99.90
2022-08-03T00:40:27.707Z,99.90
2022-08-03T00:42:56.776Z,99.90
2022-08-03T00:45:35.375Z,99.90
2022-08-03T00:48:03.944Z,99.90
2022-08-03T00:50:34.773Z,99.90
2022-08-03T00:53:05.902Z,99.90
2022-08-03T00:55:33.096Z,99.90
2022-08-03T00:58:01.492Z,99.90
2022-08-03T01:00:28.464Z,99.90
2022-08-03T01:02:55.433Z,99.90
2022-08-03T01:05:22.847Z,99.90
2022-08-03T01:07:58.142Z,99.90
2022-08-03T01:10:53.769Z,99.90
2022-08-03T01:13:59.812Z,99.90
2022-08-03T01:16:36.881Z,99.90
2022-08-03T01:19:22.662Z,99.90
2022-08-03T01:22:27.137Z,99.90
2022-08-03T01:25:08.076Z,99.90
2022-08-03T01:28:05.885Z,99.90
2022-08-03T01:30:35.474Z,99.90
2022-08-03T01:33:28.483Z,99.90
2022-08-03T01:36:02.203Z,99.90
2022-08-03T01:38:42.114Z,99.90
2022-08-03T01:41:13.320Z,99.90
2022-08-03T01:44:27.264Z,99.90
2022-08-03T01:46:33.668Z,99.90
2022-08-03T01:49:09.412Z,99.90
2022-08-03T01:51:56.100Z,99.90
2022-08-03T01:54:28.201Z,99.90
2022-08-03T01:56:58.595Z,99.90
2022-08-03T01:59:27.965Z,99.90
2022-08-03T02:02:16.050Z,99.90
2022-08-03T02:04:44.563Z,99.90
2022-08-03T02:07:13.012Z,99.90
2022-08-03T02:09:41.563Z,99.90
2022-08-03T02:12:14.258Z,99.90
2022-08-03T02:14:43.587Z,99.90
2022-08-03T02:17:11.292Z,99.90
2022-08-03T02:19:39.021Z,99.90
2022-08-03T02:22:08.597Z,99.90
2022-08-03T02:24:35.588Z,99.90
2022-08-03T02:27:08.365Z,99.90
2022-08-03T02:29:40.976Z,99.90
2022-08-03T02:32:15.118Z,99.90
2022-08-03T02:34:46.493Z,99.90
2022-08-03T02:37:15.090Z,99.90
2022-08-03T02:39:43.797Z,99.90
2022-08-03T02:42:14.076Z,99.90
2022-08-03T02:44:47.848Z,99.90
2022-08-03T02:47:15.809Z,99.90
2022-08-03T02:49:51.619Z,99.90
2022-08-03T02:52:25.565Z,99.90
2022-08-03T02:54:56.580Z,99.90
2022-08-03T02:57:26.851Z,99.90
2022-08-03T02:59:55.706Z,99.90
2022-08-03T03:02:23.618Z,99.90
2022-08-03T03:05:53.197Z,99.90
2022-08-03T03:07:53.011Z,99.90
2022-08-03T03:10:24.090Z,99.90
2022-08-03T03:12:56.835Z,99.90
2022-08-03T03:15:25.975Z,99.90
2022-08-03T03:17:53.810Z,99.90
2022-08-03T03:20:29.113Z,99.90
2022-08-03T03:22:59.824Z,99.90
2022-08-03T03:25:27.566Z,99.90
2022-08-03T03:27:54.780Z,99.90
2022-08-03T03:30:21.871Z,99.90
2022-08-03T03:32:49.160Z,99.90
2022-08-03T03:35:16.824Z,99.90
2022-08-03T03:37:43.764Z,99.90
2022-08-03T03:40:11.388Z,99.90
2022-08-03T03:42:38.676Z,99.90
2022-08-03T03:45:07.464Z,99.90
2022-08-03T03:47:35.728Z,99.90
2022-08-03T03:50:05.215Z,99.90
2022-08-03T03:52:32.981Z,99.90
2022-08-03T03:55:01.260Z,99.90
2022-08-03T03:57:29.595Z,99.90
2022-08-03T03:59:56.899Z,99.90
2022-08-03T04:02:23.896Z,99.90
2022-08-03T04:05:09.176Z,99.90
2022-08-03T04:08:22.159Z,99.90
2022-08-03T04:11:07.006Z,99.90
2022-08-03T04:13:43.014Z,99.90
2022-08-03T04:16:13.232Z,99.90
2022-08-03T04:18:42.288Z,99.90
2022-08-03T04:21:13.139Z,99.90
2022-08-03T04:23:44.516Z,99.90
2022-08-03T04:26:13.639Z,99.90
2022-08-03T04:28:43.836Z,99.90
2022-08-03T04:31:10.804Z,99.90
2022-08-03T04:33:39.760Z,99.90
2022-08-03T04:36:09.774Z,99.90
2022-08-03T04:38:44.343Z,99.90
2022-08-03T04:41:11.988Z,99.90
2022-08-03T04:43:41.862Z,99.90
2022-08-03T04:46:09.578Z,99.90
2022-08-03T04:48:36.959Z,99.90
2022-08-03T04:51:04.584Z,99.90
2022-08-03T04:53:32.634Z,99.90
2022-08-03T04:56:06.285Z,99.90
2022-08-03T04:58:33.533Z,99.90
2022-08-03T05:01:00.479Z,99.90
2022-08-03T05:03:27.375Z,99.90
2022-08-03T05:06:06.591Z,99.90
2022-08-03T05:08:46.357Z,99.90
2022-08-03T05:11:15.608Z,99.90
2022-08-03T05:13:43.012Z,99.90
2022-08-03T05:16:10.024Z,99.90
2022-08-03T05:18:37.025Z,99.90
2022-08-03T05:21:05.132Z,99.90
2022-08-03T05:23:32.267Z,99.90
2022-08-03T05:25:59.373Z,99.90
2022-08-03T05:28:26.272Z,99.90
2022-08-03T05:30:53.231Z,99.90
2022-08-03T05:33:20.176Z,99.90
2022-08-03T05:36:01.088Z,99.90
2022-08-03T05:38:34.960Z,99.90
2022-08-03T05:41:21.060Z,99.90
2022-08-03T05:43:52.515Z,99.90
2022-08-03T05:46:20.373Z,99.90
2022-08-03T05:48:47.306Z,99.90
2022-08-03T05:51:14.346Z,99.90
2022-08-03T05:53:42.868Z,99.90
2022-08-03T05:56:13.698Z,99.90
2022-08-03T05:58:47.615Z,99.90
2022-08-03T06:01:16.445Z,99.90
2022-08-03T06:03:43.383Z,99.90
2022-08-03T06:06:11.716Z,99.90
2022-08-03T06:08:41.221Z,99.90
2022-08-03T06:11:08.355Z,99.90
2022-08-03T06:13:35.764Z,99.90
2022-08-03T06:16:02.943Z,99.90
2022-08-03T06:18:30.028Z,99.90
2022-08-03T06:20:57.160Z,99.90
2022-08-03T06:23:55.227Z,99.90
2022-08-03T06:26:13.357Z,99.90
2022-08-03T06:28:53.165Z,99.90
2022-08-03T06:31:33.066Z,99.90
2022-08-03T06:34:32.354Z,99.90
2022-08-03T06:36:51.151Z,99.90
2022-08-03T06:39:19.799Z,99.90
2022-08-03T06:41:46.701Z,99.90
2022-08-03T06:44:13.697Z,99.90
2022-08-03T06:46:40.926Z,99.90
2022-08-03T06:49:08.177Z,99.90
2022-08-03T06:52:03.717Z,99.90
2022-08-03T06:54:22.444Z,99.90
2022-08-03T06:56:49.421Z,99.90
2022-08-03T07:00:08.021Z,99.90
2022-08-03T07:02:03.787Z,99.90
2022-08-03T07:04:30.781Z,99.90
2022-08-03T07:06:58.449Z,99.90
2022-08-03T07:09:26.952Z,99.90
2022-08-03T07:11:54.391Z,99.90
2022-08-03T07:14:21.850Z,99.90
2022-08-03T07:16:48.891Z,99.90
2022-08-03T07:19:15.960Z,99.90
2022-08-03T07:21:42.917Z,99.90
2022-08-03T07:24:09.916Z,99.90
2022-08-03T07:26:36.797Z,99.90
2022-08-03T07:29:04.235Z,99.90
2022-08-03T07:31:42.267Z,99.90
2022-08-03T07:34:09.327Z,99.90
2022-08-03T07:36:36.271Z,99.90
2022-08-03T07:39:16.667Z,99.90
2022-08-03T07:41:46.855Z,99.90
2022-08-03T07:44:14.023Z,99.90
2022-08-03T07:46:40.915Z,99.90
2022-08-03T07:49:08.995Z,99.90
2022-08-03T07:51:36.248Z,99.90
2022-08-03T07:54:03.372Z,99.90
2022-08-03T07:56:30.640Z,99.90
2022-08-03T07:58:57.908Z,99.90
2022-08-03T08:01:25.044Z,99.90
2022-08-03T08:03:52.952Z,99.90
2022-08-03T08:06:20.895Z,99.90
2022-08-03T08:08:47.870Z,99.90
2022-08-03T08:11:14.961Z,99.90
2022-08-03T08:13:42.925Z,99.90
2022-08-03T08:16:09.951Z,99.90
2022-08-03T08:18:37.037Z,99.90
2022-08-03T08:21:04.052Z,99.90
2022-08-03T08:23:43.172Z,99.90
2022-08-03T08:26:13.324Z,99.90
2022-08-03T08:28:40.228Z,99.90
2022-08-03T08:31:07.866Z,99.90
2022-08-03T08:34:04.941Z,99.90
2022-08-03T08:36:24.071Z,99.90
2022-08-03T08:38:51.111Z,99.90
2022-08-03T08:41:18.044Z,99.90
2022-08-03T08:43:46.003Z,99.90
2022-08-03T08:46:23.118Z,99.80
2022-08-03T08:48:53.834Z,99.70
2022-08-03T08:51:22.645Z,99.30
2022-08-03T08:53:54.536Z,99.00
2022-08-03T08:56:25.724Z,99.20
2022-08-03T08:58:59.036Z,99.00
2022-08-03T09:01:26.584Z,98.70
2022-08-03T09:03:54.433Z,98.70
2022-08-03T09:06:24.073Z,98.30
2022-08-03T09:08:51.221Z,98.60
2022-08-03T09:11:53.339Z,98.00
2022-08-03T09:14:11.471Z,98.00
2022-08-03T09:17:03.536Z,97.00
2022-08-03T09:19:33.251Z,97.40
2022-08-03T09:22:14.939Z,96.90
2022-08-03T09:25:14.975Z,96.30
2022-08-03T09:27:45.098Z,96.00
2022-08-03T09:30:33.742Z,96.20
2022-08-03T09:33:09.290Z,96.00
2022-08-03T09:35:57.334Z,96.10
2022-08-03T09:38:28.213Z,95.80
2022-08-03T09:40:59.931Z,95.20
2022-08-03T09:43:27.975Z,95.20
2022-08-03T09:46:04.820Z,94.90
2022-08-03T09:48:36.927Z,94.60
2022-08-03T09:51:14.354Z,94.60
2022-08-03T09:53:58.933Z,94.90
2022-08-03T09:56:43.040Z,94.30
2022-08-03T09:59:11.576Z,94.10
2022-08-03T10:01:41.746Z,94.10
2022-08-03T10:04:17.246Z,93.80
2022-08-03T10:06:46.549Z,93.20
2022-08-03T10:09:16.003Z,93.30
2022-08-03T10:11:47.067Z,92.90
2022-08-03T10:14:20.160Z,92.90
2022-08-03T10:16:48.173Z,92.70
2022-08-03T10:19:16.067Z,92.10
2022-08-03T10:21:49.594Z,92.10
2022-08-03T10:24:20.276Z,91.80
2022-08-03T10:26:50.363Z,91.30
2022-08-03T10:29:28.091Z,91.30
2022-08-03T10:31:58.837Z,91.00
2022-08-03T10:34:29.209Z,91.30
2022-08-03T10:36:59.915Z,91.50
2022-08-03T10:39:30.027Z,91.80
2022-08-03T10:41:59.832Z,92.00
2022-08-03T10:44:33.333Z,91.90
2022-08-03T10:47:00.932Z,92.00
2022-08-03T10:49:33.929Z,91.70
2022-08-03T10:52:09.683Z,91.40
2022-08-03T10:55:03.508Z,91.20
2022-08-03T10:58:10.847Z,90.90
2022-08-03T11:00:50.674Z,91.10
2022-08-03T11:03:18.719Z,91.50
2022-08-03T11:05:49.267Z,91.40
2022-08-03T11:08:31.316Z,91.40
2022-08-03T11:11:01.088Z,91.00
2022-08-03T11:13:31.266Z,91.10
2022-08-03T11:16:03.952Z,90.60
2022-08-03T11:18:33.678Z,90.20
2022-08-03T11:21:01.137Z,90.30
2022-08-03T11:24:02.889Z,90.10
2022-08-03T11:26:33.412Z,90.30
2022-08-03T11:29:29.947Z,90.20
2022-08-03T11:31:57.235Z,90.00
2022-08-03T11:34:24.809Z,90.00
2022-08-03T11:37:30.167Z,89.70
2022-08-03T11:39:59.902Z,89.70
2022-08-03T11:42:27.622Z,89.80
2022-08-03T11:44:56.346Z,89.60
2022-08-03T11:47:29.530Z,88.40
2022-08-03T11:49:59.272Z,88.70
2022-08-03T11:52:28.752Z,88.60
2022-08-03T11:54:56.730Z,88.40
2022-08-03T11:59:01.067Z,88.10
2022-08-03T12:00:25.886Z,88.10
2022-08-03T12:03:08.612Z,87.90
2022-08-03T12:05:51.798Z,87.90
2022-08-03T12:08:40.236Z,88.20
2022-08-03T12:11:09.246Z,87.50
2022-08-03T12:14:27.422Z,87.40
2022-08-03T12:16:35.829Z,87.50
2022-08-03T12:19:05.101Z,87.50
2022-08-03T12:21:32.480Z,86.80
2022-08-03T12:24:01.932Z,86.70
2022-08-03T12:26:30.848Z,86.60
2022-08-03T12:28:58.490Z,86.60
2022-08-03T12:31:25.903Z,86.50
2022-08-03T12:34:08.330Z,86.00
2022-08-03T12:36:36.487Z,86.20
2022-08-03T12:39:06.797Z,85.40
2022-08-03T12:41:35.941Z,85.30
2022-08-03T12:44:04.430Z,85.40
2022-08-03T12:46:47.451Z,86.20
2022-08-03T12:49:17.410Z,85.70
2022-08-03T12:51:44.294Z,86.40
2022-08-03T12:54:18.631Z,86.60
2022-08-03T12:57:03.121Z,86.10
2022-08-03T12:59:35.399Z,86.10
2022-08-03T13:02:18.002Z,85.60
2022-08-03T13:04:48.792Z,84.90
2022-08-03T13:07:16.740Z,85.40
2022-08-03T13:09:46.214Z,85.00
2022-08-03T13:12:15.754Z,85.50
2022-08-03T13:14:43.969Z,85.90
2022-08-03T13:17:11.744Z,86.20
2022-08-03T13:19:40.599Z,86.50
2022-08-03T13:22:15.738Z,86.30
2022-08-03T13:24:44.248Z,86.10
2022-08-03T13:28:12.351Z,86.60
2022-08-03T13:29:59.572Z,86.80
2022-08-03T13:32:26.640Z,87.10
2022-08-03T13:34:53.580Z,87.30
2022-08-03T13:37:21.905Z,87.60
2022-08-03T13:39:58.861Z,87.30
2022-08-03T13:42:32.137Z,87.10
2022-08-03T13:45:00.459Z,87.30
2022-08-03T13:47:28.134Z,86.90
2022-08-03T13:50:01.845Z,86.90
2022-08-03T13:52:34.939Z,87.20
2022-08-03T13:55:03.749Z,86.70
2022-08-03T13:58:03.454Z,87.20
2022-08-03T14:00:27.077Z,87.60
2022-08-03T14:03:03.842Z,88.30
2022-08-03T14:05:34.428Z,88.80
2022-08-03T14:08:04.548Z,89.20
2022-08-03T14:10:40.337Z,89.30
2022-08-03T14:13:07.872Z,89.40
2022-08-03T14:15:37.695Z,89.80
2022-08-03T14:18:12.907Z,90.00
2022-08-03T14:20:47.899Z,90.20
2022-08-03T14:23:17.892Z,90.30
2022-08-03T14:25:51.722Z,90.40
2022-08-03T14:28:22.891Z,90.50
2022-08-03T14:30:54.421Z,90.70
2022-08-03T14:33:21.709Z,90.90
2022-08-03T14:35:49.100Z,90.80
2022-08-03T14:38:16.464Z,91.00
2022-08-03T14:40:43.683Z,91.20
2022-08-03T14:43:10.675Z,91.20
2022-08-03T14:45:38.316Z,91.10
2022-08-03T14:50:30.491Z,91.00
2022-08-03T14:50:53.016Z,90.80
2022-08-03T14:53:20.232Z,90.80
2022-08-03T14:55:50.530Z,91.00
2022-08-03T14:58:22.937Z,91.00
2022-08-03T15:00:52.001Z,91.00
2022-08-03T15:03:23.234Z,90.80
2022-08-03T15:05:55.344Z,90.60
2022-08-03T15:08:23.810Z,90.40
2022-08-03T15:10:51.339Z,90.20
2022-08-03T15:13:19.881Z,89.60
2022-08-03T15:15:48.335Z,89.80
2022-08-03T15:18:15.528Z,90.20
2022-08-03T15:20:45.423Z,90.40
2022-08-03T15:23:14.607Z,90.60
2022-08-03T15:26:28.963Z,90.90
2022-08-03T15:28:30.019Z,91.00
2022-08-03T15:30:57.162Z,90.70
2022-08-03T15:33:24.104Z,90.70
2022-08-03T15:35:51.061Z,90.70
2022-08-03T15:38:18.003Z,90.70
2022-08-03T15:40:45.754Z,90.70
2022-08-03T15:43:12.733Z,90.50
2022-08-03T15:45:40.700Z,90.60
2022-08-03T15:48:09.246Z,90.80
2022-08-03T15:50:36.392Z,90.80
2022-08-03T15:53:04.610Z,90.70
2022-08-03T15:55:31.872Z,90.90
2022-08-03T15:59:10.143Z,91.00
2022-08-03T16:00:45.977Z,91.20
2022-08-03T16:03:13.086Z,91.30
2022-08-03T16:05:39.979Z,91.10
2022-08-03T16:08:11.684Z,91.00
2022-08-03T16:10:40.820Z,91.00
2022-08-03T16:13:08.127Z,91.20
2022-08-03T16:15:38.393Z,91.30
2022-08-03T16:18:06.846Z,91.40
2022-08-03T16:20:35.140Z,91.50
2022-08-03T16:23:10.809Z,91.70
2022-08-03T16:25:49.135Z,91.70
2022-08-03T16:28:17.668Z,91.70
2022-08-03T16:30:46.656Z,91.90
2022-08-03T16:33:17.218Z,91.90
2022-08-03T16:35:45.537Z,92.10
2022-08-03T16:38:18.201Z,92.20
2022-08-03T16:40:47.165Z,92.00
2022-08-03T16:43:18.594Z,92.20
2022-08-03T16:45:47.366Z,92.40
2022-08-03T16:48:18.555Z,92.60
2022-08-03T16:50:46.265Z,92.80
2022-08-03T16:53:16.396Z,92.80
2022-08-03T16:55:51.867Z,92.70
2022-08-03T16:58:41.726Z,92.50
2022-08-03T17:01:24.808Z,92.40
2022-08-03T17:04:04.661Z,92.10
2022-08-03T17:06:35.642Z,92.00
2022-08-03T17:09:20.843Z,91.70
2022-08-03T17:11:50.292Z,91.60
2022-08-03T17:14:22.952Z,91.40
2022-08-03T17:17:01.664Z,91.10
2022-08-03T17:19:30.840Z,90.80
2022-08-03T17:22:28.256Z,90.50
2022-08-03T17:24:58.088Z,90.20
2022-08-03T17:28:51.022Z,90.30
2022-08-03T17:30:18.844Z,90.50
2022-08-03T17:32:57.655Z,90.50
2022-08-03T17:35:36.568Z,90.80
2022-08-03T17:38:10.396Z,91.10
2022-08-03T17:40:52.211Z,91.20
2022-08-03T17:44:08.174Z,91.60
2022-08-03T17:46:10.880Z,92.00
2022-08-03T17:48:41.362Z,92.30
2022-08-03T17:51:28.072Z,92.50
2022-08-03T17:54:18.363Z,92.60
2022-08-03T17:57:21.970Z,92.70
2022-08-03T18:00:27.984Z,92.70
2022-08-03T18:03:58.803Z,92.80
2022-08-03T18:06:31.612Z,92.80
2022-08-03T18:09:04.833Z,93.00
2022-08-03T18:11:53.515Z,93.10
2022-08-03T18:14:57.681Z,93.30
2022-08-03T18:17:55.337Z,93.40
2022-08-03T18:20:34.658Z,93.40
2022-08-03T18:23:07.131Z,93.50
2022-08-03T18:25:45.502Z,93.50
2022-08-03T18:28:18.913Z,93.60
2022-08-03T18:30:54.010Z,93.60
2022-08-03T18:34:17.024Z,93.70
2022-08-03T18:36:17.859Z,93.70
2022-08-03T18:38:48.173Z,93.80
2022-08-03T18:41:31.923Z,93.80
2022-08-03T18:44:06.800Z,93.80
2022-08-03T18:47:07.364Z,93.90
2022-08-03T18:50:02.755Z,93.90
2022-08-03T18:53:15.499Z,94.00
2022-08-03T18:56:01.888Z,94.10
2022-08-03T18:58:51.473Z,94.20
2022-08-03T19:01:59.738Z,94.30
2022-08-03T19:04:37.371Z,94.30
2022-08-03T19:07:11.155Z,94.40
2022-08-03T19:09:59.003Z,94.50
2022-08-03T19:12:41.094Z,94.60
2022-08-03T19:15:12.667Z,94.70
2022-08-03T19:17:50.330Z,94.80
2022-08-03T19:20:24.988Z,95.00
2022-08-03T19:22:54.102Z,95.00
2022-08-03T19:28:09.386Z,95.20
2022-08-03T19:30:39.599Z,95.20
2022-08-03T19:33:12.299Z,95.30
2022-08-03T19:35:55.066Z,95.30
2022-08-03T19:38:28.641Z,95.40
2022-08-03T19:41:03.259Z,95.40
2022-08-03T19:43:49.313Z,95.50
2022-08-03T19:46:22.389Z,95.50
2022-08-03T19:49:01.614Z,95.60
2022-08-03T19:51:58.855Z,95.60
2022-08-03T19:54:29.500Z,95.60
2022-08-03T19:56:58.419Z,95.70
2022-08-03T19:59:26.379Z,95.70
2022-08-03T20:01:53.775Z,95.70
2022-08-03T20:04:21.783Z,95.80
2022-08-03T20:06:50.119Z,95.80
2022-08-03T20:09:19.373Z,95.90
2022-08-03T20:11:47.836Z,96.00
2022-08-03T20:14:20.862Z,96.10
2022-08-03T20:16:53.908Z,96.20
2022-08-03T20:19:21.600Z,96.40
2022-08-03T20:21:51.459Z,96.50
2022-08-03T20:24:25.999Z,96.80
2022-08-03T20:26:54.987Z,96.90
2022-08-03T20:30:05.330Z,96.90
2022-08-03T20:32:19.217Z,97.10
2022-08-03T20:34:52.990Z,97.10
2022-08-03T20:37:20.356Z,97.30
2022-08-03T20:39:49.690Z,97.40
2022-08-03T20:42:21.375Z,97.40
2022-08-03T20:45:05.705Z,97.60
2022-08-03T20:47:50.242Z,97.70
2022-08-03T20:50:18.397Z,97.70
2022-08-03T20:52:50.566Z,97.80
2022-08-03T20:55:20.466Z,98.00
2022-08-03T20:58:06.780Z,98.10
2022-08-03T21:00:33.679Z,98.20
2022-08-03T21:03:00.599Z,98.20
2022-08-03T21:05:48.038Z,98.60
2022-08-03T21:08:17.925Z,98.30
2022-08-03T21:10:45.769Z,98.40
2022-08-03T21:13:02.099Z,95.10
2022-08-03T21:13:23.786Z,98.40
2022-08-03T21:16:06.433Z,98.60
2022-08-03T21:18:47.244Z,98.70
2022-08-03T21:21:15.999Z,99.00
2022-08-03T21:23:48.719Z,99.20
2022-08-03T21:26:21.624Z,99.40
2022-08-03T21:28:50.179Z,99.50
2022-08-03T21:31:24.356Z,99.60
2022-08-03T21:34:11.299Z,99.70
2022-08-03T21:36:38.322Z,99.80
2022-08-03T21:39:08.388Z,99.80
2022-08-03T21:41:37.277Z,99.90
2022-08-03T21:44:05.981Z,99.90
2022-08-03T21:46:39.285Z,99.90
2022-08-03T21:50:04.175Z,99.90
2022-08-03T21:51:59.657Z,99.90
2022-08-03T21:54:38.638Z,99.90
2022-08-03T21:57:13.183Z,99.90
2022-08-03T21:59:52.193Z,99.90
2022-08-03T22:02:24.095Z,99.90
2022-08-03T22:04:55.354Z,99.90
2022-08-03T22:07:28.461Z,99.90
2022-08-03T22:10:00.706Z,99.90
2022-08-03T22:12:29.632Z,99.90
2022-08-03T22:14:59.997Z,99.90
2022-08-03T22:17:55.653Z,99.90
2022-08-03T22:20:17.630Z,99.90
2022-08-03T22:22:55.165Z,99.90
2022-08-03T22:25:29.333Z,99.90
2022-08-03T22:27:58.181Z,99.90
2022-08-03T22:30:25.267Z,99.90
2022-08-03T22:32:54.428Z,99.90
2022-08-03T22:35:24.064Z,99.90
2022-08-03T22:37:57.308Z,99.90
2022-08-03T22:40:24.359Z,99.90
2022-08-03T22:42:52.767Z,99.90
2022-08-03T22:46:06.910Z,99.90
2022-08-03T22:48:08.277Z,99.90
2022-08-03T22:50:35.570Z,99.90
2022-08-03T22:53:03.304Z,99.90
2022-08-03T22:55:30.548Z,99.90
2022-08-03T22:57:57.464Z,99.90
2022-08-03T23:00:24.935Z,99.90
2022-08-03T23:02:54.729Z,99.90
2022-08-03T23:06:00.239Z,99.90
2022-08-03T23:08:24.576Z,99.90
2022-08-03T23:10:53.793Z,99.90
2022-08-03T23:13:24.947Z,99.90
2022-08-03T23:15:56.592Z,99.90
2022-08-03T23:18:24.672Z,99.90
2022-08-03T23:21:01.575Z,99.90
2022-08-03T23:23:44.137Z,99.90
2022-08-03T23:26:13.617Z,99.90
2022-08-03T23:28:45.239Z,99.90
2022-08-03T23:31:14.205Z,99.90
2022-08-03T23:33:43.483Z,99.90
2022-08-03T23:36:30.654Z,99.90
2022-08-03T23:38:59.189Z,99.90
2022-08-03T23:41:26.192Z,99.90
2022-08-03T23:43:53.915Z,99.90
2022-08-03T23:46:26.003Z,99.90
2022-08-03T23:48:53.902Z,99.90
2022-08-03T23:51:49.944Z,99.90
2022-08-03T23:54:23.870Z,99.90
2022-08-03T23:57:35.697Z,99.90
